createdAt,value
2023-10-10T00:01:49.843Z,101061.50
2023-10-10T00:04:22.570Z,101063.25
2023-10-10T00:06:54.816Z,101062.97
2023-10-10T00:09:28.162Z,101058.40
2023-10-10T00:12:00.343Z,101059.05
2023-10-10T00:14:32.514Z,101056.88
2023-10-10T00:17:06.793Z,101061.88
2023-10-10T00:19:45.230Z,101061.29
2023-10-10T00:22:19.010Z,101062.71
2023-10-10T00:24:54.361Z,101057.23
2023-10-10T00:27:26.717Z,101060.48
2023-10-10T00:30:03.530Z,101062.93
2023-10-10T00:32:41.029Z,101068.30
2023-10-10T00:35:13.185Z,101068.55
2023-10-10T00:37:46.474Z,101069.36
2023-10-10T00:40:30.755Z,101065.09
2023-10-10T00:43:05.429Z,101066.56
2023-10-10T00:45:37.517Z,101062.45
2023-10-10T00:48:11.838Z,101061.23
2023-10-10T00:50:44.463Z,101059.50
2023-10-10T00:53:17.366Z,101057.80
2023-10-10T00:55:56.712Z,101063.88
2023-10-10T00:58:37.381Z,101061.72
2023-10-10T01:01:11.661Z,101059.32
2023-10-10T01:03:47.749Z,101057.45
2023-10-10T01:06:26.135Z,101055.42
2023-10-10T01:09:01.390Z,101052.29
2023-10-10T01:11:33.296Z,101054.74
2023-10-10T01:14:09.327Z,101056.56
2023-10-10T01:16:41.488Z,101057.48
2023-10-10T01:19:15.682Z,101050.99
2023-10-10T01:21:53.038Z,101051.19
2023-10-10T01:24:25.242Z,101046.70
2023-10-10T01:27:04.918Z,101047.10
2023-10-10T01:29:42.359Z,101049.35
2023-10-10T01:32:14.435Z,101048.70
2023-10-10T01:34:46.413Z,101051.06
2023-10-10T01:37:22.410Z,101049.36
2023-10-10T01:40:16.317Z,101047.78
2023-10-10T01:42:55.467Z,101043.92
2023-10-10T01:45:28.675Z,101046.55
2023-10-10T01:48:04.505Z,101047.02
2023-10-10T01:50:36.560Z,101048.05
2023-10-10T01:53:11.174Z,101047.40
2023-10-10T01:55:43.091Z,101047.90
2023-10-10T01:58:20.864Z,101048.70
2023-10-10T02:00:52.797Z,101051.45
2023-10-10T02:03:25.734Z,101057.67
2023-10-10T02:06:00.941Z,101054.24
2023-10-10T02:08:35.909Z,101053.24
2023-10-10T02:11:08.931Z,101057.07
2023-10-10T02:13:40.907Z,101057.98
2023-10-10T02:16:16.457Z,101055.81
2023-10-10T02:18:52.644Z,101058.59
2023-10-10T02:21:44.328Z,101055.86
2023-10-10T02:24:36.822Z,101058.17
2023-10-10T02:27:13.502Z,101060.05
2023-10-10T02:29:51.013Z,101066.56
2023-10-10T02:32:24.063Z,101063.40
2023-10-10T02:35:15.519Z,101062.11
2023-10-10T02:37:48.309Z,101063.22
2023-10-10T02:40:20.116Z,101066.70
2023-10-10T02:43:12.779Z,101068.91
2023-10-10T02:45:46.500Z,101073.79
2023-10-10T02:48:22.609Z,101074.26
2023-10-10T02:50:54.495Z,101079.17
2023-10-10T02:53:33.778Z,101076.34
2023-10-10T02:56:11.106Z,101074.48
2023-10-10T02:58:44.706Z,101073.13
2023-10-10T03:01:41.820Z,101073.40
2023-10-10T03:04:18.501Z,101075.24
2023-10-10T03:06:50.637Z,101079.73
2023-10-10T03:09:39.756Z,101078.98
2023-10-10T03:12:19.044Z,101076.34
2023-10-10T03:14:55.098Z,101081.25
2023-10-10T03:17:44.684Z,101080.88
2023-10-10T03:20:26.960Z,101078.20
2023-10-10T03:23:24.976Z,101079.44
2023-10-10T03:26:05.830Z,101083.92
2023-10-10T03:28:48.270Z,101082.82
2023-10-10T03:31:36.659Z,101082.96
2023-10-10T03:34:20.246Z,101085.89
2023-10-10T03:37:09.994Z,101086.31
2023-10-10T03:39:51.073Z,101085.58
2023-10-10T03:42:41.503Z,101084.84
2023-10-10T03:45:36.318Z,101086.81
2023-10-10T03:48:26.112Z,101089.92
2023-10-10T03:51:15.233Z,101088.11
2023-10-10T03:54:05.306Z,101090.90
2023-10-10T03:56:54.775Z,101092.86
2023-10-10T03:59:44.609Z,101097.23
2023-10-10T04:02:34.642Z,101098.16
2023-10-10T04:05:27.753Z,101100.30
2023-10-10T04:08:17.996Z,101106.82
2023-10-10T04:11:08.454Z,101108.62
2023-10-10T04:13:57.827Z,101112.81
2023-10-10T04:16:47.614Z,101109.09
2023-10-10T04:19:37.152Z,101110.80
2023-10-10T04:22:26.539Z,101113.14
2023-10-10T04:25:16.042Z,101115.17
2023-10-10T04:28:04.784Z,101123.45
2023-10-10T04:30:54.160Z,101128.02
2023-10-10T04:33:43.883Z,101128.27
2023-10-10T04:36:33.011Z,101124.06
2023-10-10T04:39:22.718Z,101125.35
2023-10-10T04:42:12.376Z,101127.67
2023-10-10T04:45:02.566Z,101130.06
2023-10-10T04:47:52.285Z,101133.79
2023-10-10T04:50:42.347Z,101133.37
2023-10-10T04:53:36.794Z,101135.10
2023-10-10T04:56:26.833Z,101137.73
2023-10-10T04:59:16.356Z,101145.41
2023-10-10T05:02:05.889Z,101149.19
2023-10-10T05:04:54.967Z,101153.87
2023-10-10T05:07:44.680Z,101157.20
2023-10-10T05:10:34.198Z,101161.60
2023-10-10T05:13:24.027Z,101162.39
2023-10-10T05:16:13.493Z,101159.39
2023-10-10T05:19:02.990Z,101159.58
2023-10-10T05:21:52.608Z,101164.35
2023-10-10T05:24:27.614Z,101165.52
2023-10-10T05:27:01.373Z,101168.02
2023-10-10T05:29:35.166Z,101173.93
2023-10-10T05:32:10.175Z,101172.80
2023-10-10T05:34:45.292Z,101172.80
2023-10-10T05:37:17.436Z,101173.41
2023-10-10T05:39:49.524Z,101179.01
2023-10-10T05:42:26.650Z,101181.78
2023-10-10T05:45:00.831Z,101177.88
2023-10-10T05:47:32.868Z,101184.91
2023-10-10T05:50:05.388Z,101187.00
2023-10-10T05:52:39.398Z,101189.09
2023-10-10T05:55:14.085Z,101190.76
2023-10-10T05:57:47.380Z,101191.02
2023-10-10T06:00:19.803Z,101193.59
2023-10-10T06:02:54.070Z,101193.48
2023-10-10T06:05:26.465Z,101191.42
2023-10-10T06:08:00.100Z,101195.74
2023-10-10T06:10:34.233Z,101193.89
2023-10-10T06:13:08.205Z,101193.98
2023-10-10T06:15:38.914Z,101193.58
2023-10-10T06:18:13.813Z,101197.17
2023-10-10T06:23:24.250Z,101202.91
2023-10-10T06:26:00.977Z,101205.11
2023-10-10T06:28:37.674Z,101207.61
2023-10-10T06:31:12.142Z,101210.39
2023-10-10T06:33:44.190Z,101212.77
2023-10-10T06:36:37.217Z,101212.42
2023-10-10T06:39:25.690Z,101219.70
2023-10-10T06:41:59.863Z,101226.81
2023-10-10T06:44:37.129Z,101231.05
2023-10-10T06:47:13.302Z,101226.64
2023-10-10T06:50:00.206Z,101230.11
2023-10-10T06:52:37.840Z,101231.70
2023-10-10T06:55:13.962Z,101232.80
2023-10-10T06:57:53.410Z,101235.32
2023-10-10T07:00:33.481Z,101235.97
2023-10-10T07:03:05.729Z,101244.05
2023-10-10T07:05:40.890Z,101244.70
2023-10-10T07:08:20.927Z,101242.38
2023-10-10T07:10:55.020Z,101247.83
2023-10-10T07:13:31.016Z,101250.91
2023-10-10T07:16:04.398Z,101247.35
2023-10-10T07:18:36.509Z,101248.73
2023-10-10T07:21:20.282Z,101249.64
2023-10-10T07:24:04.497Z,101248.23
2023-10-10T07:26:43.336Z,101252.85
2023-10-10T07:29:29.363Z,101249.36
2023-10-10T07:32:17.282Z,101248.45
2023-10-10T07:34:52.318Z,101251.65
2023-10-10T07:37:25.025Z,101252.38
2023-10-10T07:40:10.388Z,101248.95
2023-10-10T07:42:42.203Z,101252.23
2023-10-10T07:45:15.742Z,101254.94
2023-10-10T07:48:01.626Z,101260.05
2023-10-10T07:50:37.003Z,101258.45
2023-10-10T07:53:14.148Z,101260.83
2023-10-10T07:56:02.534Z,101258.91
2023-10-10T07:58:52.616Z,101254.19
2023-10-10T08:01:25.613Z,101251.30
2023-10-10T08:03:58.687Z,101254.90
2023-10-10T08:06:34.629Z,101253.60
2023-10-10T08:09:19.878Z,101247.60
2023-10-10T08:11:56.523Z,101241.43
2023-10-10T08:14:32.499Z,101245.98
2023-10-10T08:17:20.052Z,101238.89
2023-10-10T08:19:53.037Z,101240.23
2023-10-10T08:22:27.895Z,101238.05
2023-10-10T08:24:59.882Z,101243.20
2023-10-10T08:27:34.628Z,101241.36
2023-10-10T08:30:07.636Z,101238.73
2023-10-10T08:32:40.014Z,101235.46
2023-10-10T08:35:13.106Z,101231.21
2023-10-10T08:37:48.158Z,101233.28
2023-10-10T08:40:22.212Z,101226.02
2023-10-10T08:42:52.759Z,101224.10
2023-10-10T08:45:25.045Z,101222.15
2023-10-10T08:48:02.068Z,101222.77
2023-10-10T08:50:35.042Z,101219.77
2023-10-10T08:53:08.022Z,101219.07
2023-10-10T08:55:42.000Z,101216.30
2023-10-10T08:58:13.914Z,101217.15
2023-10-10T09:00:49.857Z,101216.06
2023-10-10T09:03:22.260Z,101218.41
2023-10-10T09:05:54.443Z,101217.09
2023-10-10T09:08:29.133Z,101214.70
2023-10-10T09:11:01.492Z,101215.65
2023-10-10T09:13:33.426Z,101214.53
2023-10-10T09:16:10.817Z,101215.45
2023-10-10T09:18:43.505Z,101214.82
2023-10-10T09:21:20.426Z,101213.00
2023-10-10T09:24:09.290Z,101212.95
2023-10-10T09:26:44.263Z,101212.20
2023-10-10T09:29:34.170Z,101212.83
2023-10-10T09:32:07.501Z,101218.05
2023-10-10T09:34:43.087Z,101218.22
2023-10-10T09:37:27.302Z,101218.17
2023-10-10T09:40:00.669Z,101219.97
2023-10-10T09:42:55.078Z,101220.30
2023-10-10T09:45:54.243Z,101222.74
2023-10-10T09:48:46.919Z,101230.61
2023-10-10T09:51:32.926Z,101235.06
2023-10-10T09:54:17.242Z,101233.55
2023-10-10T09:56:55.301Z,101235.55
2023-10-10T09:59:30.933Z,101231.19
2023-10-10T10:02:06.351Z,101231.20
2023-10-10T10:04:43.613Z,101222.28
2023-10-10T10:07:39.255Z,101220.73
2023-10-10T10:10:35.892Z,101220.69
2023-10-10T10:13:20.820Z,101216.92
2023-10-10T10:16:11.297Z,101216.43
2023-10-10T10:18:53.330Z,101213.63
2023-10-10T10:21:32.738Z,101208.61
2023-10-10T10:24:27.730Z,101206.30
2023-10-10T10:27:24.587Z,101195.11
2023-10-10T10:30:09.870Z,101192.50
2023-10-10T10:32:44.437Z,101190.80
2023-10-10T10:35:22.930Z,101191.19
2023-10-10T10:38:01.147Z,101196.05
2023-10-10T10:40:49.440Z,101196.91
2023-10-10T10:43:33.857Z,101200.52
2023-10-10T10:46:16.499Z,101190.73
2023-10-10T10:48:56.190Z,101189.98
2023-10-10T10:51:32.792Z,101192.31
2023-10-10T10:54:07.401Z,101188.70
2023-10-10T10:56:46.992Z,101189.29
2023-10-10T10:59:24.596Z,101183.74
2023-10-10T11:01:58.478Z,101184.32
2023-10-10T11:04:45.550Z,101186.47
2023-10-10T11:07:28.428Z,101179.13
2023-10-10T11:10:09.379Z,101176.33
2023-10-10T11:12:41.556Z,101176.86
2023-10-10T11:15:14.649Z,101178.61
2023-10-10T11:18:09.430Z,101173.46
2023-10-10T11:20:58.127Z,101168.46
2023-10-10T11:23:43.208Z,101162.94
2023-10-10T11:26:18.212Z,101167.05
2023-10-10T11:28:50.345Z,101166.15
2023-10-10T11:31:25.684Z,101166.40
2023-10-10T11:34:12.466Z,101161.09
2023-10-10T11:36:44.500Z,101159.95
2023-10-10T11:39:35.490Z,101163.58
2023-10-10T11:42:08.809Z,101162.42
2023-10-10T11:44:43.046Z,101161.00
2023-10-10T11:47:26.074Z,101154.77
2023-10-10T11:50:02.801Z,101156.92
2023-10-10T11:52:35.264Z,101157.06
2023-10-10T11:55:09.319Z,101152.36
2023-10-10T11:57:40.039Z,101153.45
2023-10-10T12:00:27.156Z,101149.47
2023-10-10T12:03:00.038Z,101147.95
2023-10-10T12:05:48.607Z,101148.83
2023-10-10T12:08:26.167Z,101149.25
2023-10-10T12:11:07.785Z,101150.58
2023-10-10T12:13:40.170Z,101147.05
2023-10-10T12:16:13.029Z,101143.47
2023-10-10T12:18:51.542Z,101144.41
2023-10-10T12:21:24.655Z,101138.93
2023-10-10T12:24:02.226Z,101133.73
2023-10-10T12:26:40.149Z,101131.80
2023-10-10T12:29:12.839Z,101133.98
2023-10-10T12:31:44.718Z,101137.77
2023-10-10T12:34:22.767Z,101136.73
2023-10-10T12:37:00.877Z,101134.73
2023-10-10T12:39:33.575Z,101135.27
2023-10-10T12:42:05.603Z,101139.51
2023-10-10T12:44:37.717Z,101139.21
2023-10-10T12:47:09.624Z,101142.11
2023-10-10T12:49:46.375Z,101146.06
2023-10-10T12:52:20.101Z,101142.52
2023-10-10T12:54:59.991Z,101140.65
2023-10-10T12:57:34.484Z,101139.98
2023-10-10T13:00:25.565Z,101136.73
2023-10-10T13:02:58.063Z,101134.38
2023-10-10T13:05:30.195Z,101134.37
2023-10-10T13:08:07.782Z,101133.96
2023-10-10T13:10:40.301Z,101128.21
2023-10-10T13:13:16.598Z,101128.95
2023-10-10T13:15:53.452Z,101123.31
2023-10-10T13:18:26.750Z,101118.26
2023-10-10T13:21:01.534Z,101119.10
2023-10-10T13:23:36.983Z,101121.85
2023-10-10T13:26:10.044Z,101120.52
2023-10-10T13:28:47.014Z,101110.85
2023-10-10T13:31:20.128Z,101107.70
2023-10-10T13:33:52.772Z,101105.08
2023-10-10T13:36:25.143Z,101102.70
2023-10-10T13:38:59.838Z,101099.23
2023-10-10T13:41:33.047Z,101092.73
2023-10-10T13:44:05.897Z,101086.48
2023-10-10T13:46:38.154Z,101088.42
2023-10-10T13:49:11.304Z,101087.05
2023-10-10T13:51:43.490Z,101085.20
2023-10-10T13:54:17.401Z,101083.15
2023-10-10T13:56:49.699Z,101079.52
2023-10-10T13:59:22.875Z,101080.63
2023-10-10T14:01:55.704Z,101078.33
2023-10-10T14:04:29.024Z,101077.69
2023-10-10T14:07:02.312Z,101073.86
2023-10-10T14:09:42.535Z,101069.09
2023-10-10T14:12:23.715Z,101066.65
2023-10-10T14:14:55.491Z,101067.25
2023-10-10T14:17:27.679Z,101066.52
2023-10-10T14:20:00.706Z,101060.88
2023-10-10T14:22:41.766Z,101059.80
2023-10-10T14:25:24.604Z,101062.59
2023-10-10T14:27:56.752Z,101066.39
2023-10-10T14:30:28.621Z,101069.00
2023-10-10T14:33:00.879Z,101065.83
2023-10-10T14:35:32.831Z,101065.41
2023-10-10T14:38:05.533Z,101068.88
2023-10-10T14:40:37.613Z,101063.61
2023-10-10T14:43:10.226Z,101064.69
2023-10-10T14:45:44.839Z,101063.84
2023-10-10T14:48:20.732Z,101064.41
2023-10-10T14:50:54.629Z,101067.45
2023-10-10T14:53:26.817Z,101068.88
2023-10-10T14:55:58.764Z,101069.71
2023-10-10T14:58:30.758Z,101071.65
2023-10-10T15:01:04.184Z,101073.28
2023-10-10T15:03:42.554Z,101075.55
2023-10-10T15:06:17.367Z,101077.94
2023-10-10T15:08:49.237Z,101079.34
2023-10-10T15:11:21.139Z,101084.17
2023-10-10T15:13:55.833Z,101087.14
2023-10-10T15:16:28.987Z,101091.32
2023-10-10T15:19:03.298Z,101091.39
2023-10-10T15:21:35.224Z,101086.16
2023-10-10T15:24:12.950Z,101091.38
2023-10-10T15:26:47.574Z,101092.33
2023-10-10T15:29:22.932Z,101090.45
2023-10-10T15:31:57.596Z,101085.48
2023-10-10T15:34:32.421Z,101085.09
2023-10-10T15:37:11.346Z,101091.63
2023-10-10T15:39:43.294Z,101094.09
2023-10-10T15:42:15.087Z,101094.43
2023-10-10T15:44:48.293Z,101097.41
2023-10-10T15:47:20.195Z,101095.26
2023-10-10T15:49:52.477Z,101091.85
2023-10-10T15:52:24.283Z,101092.27
2023-10-10T15:54:56.456Z,101091.29
2023-10-10T15:57:28.230Z,101092.80
2023-10-10T16:00:00.027Z,101090.75
2023-10-10T16:02:32.236Z,101094.19
2023-10-10T16:05:05.587Z,101098.69
2023-10-10T16:07:38.744Z,101097.68
2023-10-10T16:10:10.980Z,101097.91
2023-10-10T16:12:44.454Z,101097.57
2023-10-10T16:15:30.524Z,101092.34
2023-10-10T16:18:05.728Z,101090.29
2023-10-10T16:20:38.503Z,101088.94
2023-10-10T16:23:10.865Z,101084.11
2023-10-10T16:25:42.909Z,101080.04
2023-10-10T16:28:14.673Z,101088.13
2023-10-10T16:30:47.290Z,101095.21
2023-10-10T16:33:22.320Z,101096.58
2023-10-10T16:35:57.762Z,101100.14
2023-10-10T16:38:36.675Z,101100.97
2023-10-10T16:41:09.890Z,101100.77
2023-10-10T16:46:17.935Z,101103.43
2023-10-10T16:48:50.162Z,101096.62
2023-10-10T16:51:22.260Z,101098.77
2023-10-10T16:53:54.745Z,101097.61
2023-10-10T16:56:27.716Z,101095.23
2023-10-10T16:58:59.808Z,101088.48
2023-10-10T17:01:31.832Z,101093.34
2023-10-10T17:04:04.906Z,101094.66
2023-10-10T17:06:37.495Z,101096.66
2023-10-10T17:09:11.601Z,101101.84
2023-10-10T17:11:42.318Z,101106.52
2023-10-10T17:14:14.976Z,101107.52
2023-10-10T17:16:47.318Z,101102.16
2023-10-10T17:19:20.724Z,101099.20
2023-10-10T17:21:52.762Z,101103.97
2023-10-10T17:24:24.572Z,101114.38
2023-10-10T17:26:56.596Z,101124.85
2023-10-10T17:29:29.965Z,101123.01
2023-10-10T17:32:02.391Z,101119.98
2023-10-10T17:34:35.176Z,101119.47
2023-10-10T17:37:10.311Z,101112.58
2023-10-10T17:39:43.180Z,101112.17
2023-10-10T17:42:14.929Z,101111.42
2023-10-10T17:44:47.099Z,101108.05
2023-10-10T17:47:19.228Z,101100.59
2023-10-10T17:49:51.436Z,101091.27
2023-10-10T17:52:25.040Z,101081.11
2023-10-10T17:54:57.054Z,101075.39
2023-10-10T17:57:29.069Z,101085.88
2023-10-10T18:00:00.883Z,101086.14
2023-10-10T18:02:33.635Z,101086.15
2023-10-10T18:05:06.831Z,101085.88
2023-10-10T18:07:39.754Z,101087.36
2023-10-10T18:10:14.492Z,101086.23
2023-10-10T18:12:46.556Z,101085.85
2023-10-10T18:15:20.122Z,101089.75
2023-10-10T18:17:52.788Z,101102.17
2023-10-10T18:20:25.563Z,101103.94
2023-10-10T18:22:58.407Z,101099.77
2023-10-10T18:25:33.252Z,101084.92
2023-10-10T18:28:07.502Z,101080.46
2023-10-10T18:30:40.204Z,101089.80
2023-10-10T18:33:13.053Z,101093.04
2023-10-10T18:35:47.618Z,101087.32
2023-10-10T18:38:22.669Z,101089.00
2023-10-10T18:40:56.124Z,101094.64
2023-10-10T18:43:28.446Z,101093.67
2023-10-10T18:46:01.108Z,101083.06
2023-10-10T18:48:34.743Z,101076.57
2023-10-10T18:51:06.678Z,101081.77
2023-10-10T18:53:38.720Z,101081.04
2023-10-10T18:56:10.786Z,101072.70
2023-10-10T18:58:42.601Z,101063.63
2023-10-10T19:01:15.518Z,101087.78
2023-10-10T19:03:48.984Z,101119.84
2023-10-10T19:06:21.180Z,101127.28
2023-10-10T19:08:54.676Z,101123.54
2023-10-10T19:11:28.190Z,101116.82
2023-10-10T19:14:01.453Z,101106.25
2023-10-10T19:16:34.862Z,101103.91
2023-10-10T19:19:07.167Z,101109.45
2023-10-10T19:21:43.179Z,101108.61
2023-10-10T19:24:16.256Z,101095.18
2023-10-10T19:26:48.991Z,101092.06
2023-10-10T19:29:22.562Z,101095.23
2023-10-10T19:35:14.131Z,101100.09
2023-10-10T19:41:19.437Z,101093.02
2023-10-10T19:43:52.696Z,101097.28
2023-10-10T19:46:25.751Z,101102.39
2023-10-10T19:49:02.374Z,101102.12
2023-10-10T19:51:34.537Z,101098.81
2023-10-10T19:54:06.854Z,101096.25
2023-10-10T19:56:39.170Z,101093.63
2023-10-10T19:59:11.088Z,101092.10
2023-10-10T20:01:44.347Z,101093.18
2023-10-10T20:04:20.271Z,101095.34
2023-10-10T20:06:53.612Z,101087.12
2023-10-10T20:09:25.628Z,101080.72
2023-10-10T20:11:57.678Z,101083.71
2023-10-10T20:14:31.441Z,101089.85
2023-10-10T20:17:03.713Z,101080.94
2023-10-10T20:19:35.811Z,101078.84
2023-10-10T20:22:07.698Z,101082.75
2023-10-10T20:24:39.692Z,101077.78
2023-10-10T20:27:11.729Z,101072.79
2023-10-10T20:29:45.638Z,101073.98
2023-10-10T20:32:17.653Z,101066.23
2023-10-10T20:34:49.828Z,101056.63
2023-10-10T20:37:21.837Z,101056.56
2023-10-10T20:39:53.682Z,101053.50
2023-10-10T20:42:25.792Z,101052.16
2023-10-10T20:44:57.681Z,101049.10
2023-10-10T20:47:29.806Z,101044.63
2023-10-10T20:50:02.364Z,101044.85
2023-10-10T20:52:34.293Z,101034.90
2023-10-10T20:55:08.186Z,101038.16
2023-10-10T20:57:39.345Z,101035.57
2023-10-10T21:00:21.634Z,101031.00
2023-10-10T21:02:55.088Z,101035.52
2023-10-10T21:05:27.987Z,101035.73
2023-10-10T21:08:01.268Z,101034.17
2023-10-10T21:10:33.876Z,101037.85
2023-10-10T21:13:06.164Z,101035.64
2023-10-10T21:15:38.445Z,101038.23
2023-10-10T21:18:10.794Z,101037.70
2023-10-10T21:21:00.322Z,101036.83
2023-10-10T21:23:35.365Z,101036.83
2023-10-10T21:26:10.560Z,101043.09
2023-10-10T21:28:42.679Z,101038.39
2023-10-10T21:31:14.883Z,101029.03
2023-10-10T21:33:47.094Z,101026.90
2023-10-10T21:36:19.449Z,101028.27
2023-10-10T21:38:51.733Z,101029.42
2023-10-10T21:41:24.896Z,101032.70
2023-10-10T21:43:56.809Z,101032.02
2023-10-10T21:46:28.732Z,101032.69
2023-10-10T21:49:00.614Z,101031.45
2023-10-10T21:51:33.315Z,101031.73
2023-10-10T21:54:05.198Z,101027.88
2023-10-10T21:56:37.054Z,101028.39
2023-10-10T21:59:10.354Z,101023.59
2023-10-10T22:01:43.727Z,101020.05
2023-10-10T22:04:16.106Z,101016.75
2023-10-10T22:06:48.045Z,101010.86
2023-10-10T22:09:20.398Z,101014.69
2023-10-10T22:11:52.356Z,101017.02
2023-10-10T22:14:25.412Z,101020.27
2023-10-10T22:16:57.439Z,101018.99
2023-10-10T22:19:29.549Z,101015.39
2023-10-10T22:22:02.048Z,101013.84
2023-10-10T22:24:36.951Z,101009.74
2023-10-10T22:27:08.839Z,101004.62
2023-10-10T22:29:40.980Z,101001.59
2023-10-10T22:32:12.709Z,101003.50
2023-10-10T22:34:44.686Z,100997.33
2023-10-10T22:37:16.554Z,100999.20
2023-10-10T22:39:48.619Z,101000.79
2023-10-10T22:42:21.301Z,100997.15
2023-10-10T22:44:55.079Z,100989.79
2023-10-10T22:47:27.202Z,100987.64
2023-10-10T22:50:02.053Z,100989.66
2023-10-10T22:52:37.425Z,100987.95
2023-10-10T22:55:11.405Z,100990.19
2023-10-10T22:57:43.551Z,100996.77
2023-10-10T23:00:26.889Z,100997.08
2023-10-10T23:03:00.383Z,100998.98
2023-10-10T23:05:34.336Z,100994.52
2023-10-10T23:08:07.254Z,100992.58
2023-10-10T23:10:41.203Z,100986.40
2023-10-10T23:13:17.262Z,100982.02
2023-10-10T23:15:50.348Z,100984.23
2023-10-10T23:18:23.270Z,100983.26
2023-10-10T23:20:56.749Z,100980.08
2023-10-10T23:23:28.763Z,100975.84
2023-10-10T23:26:00.660Z,100974.77
2023-10-10T23:28:33.208Z,100975.17
2023-10-10T23:31:05.170Z,100974.04
2023-10-10T23:33:38.012Z,100968.88
2023-10-10T23:36:12.696Z,100964.04
2023-10-10T23:38:45.882Z,100959.59
2023-10-10T23:41:19.568Z,100956.95
2023-10-10T23:43:51.622Z,100960.39
2023-10-10T23:46:24.259Z,100953.25
2023-10-10T23:48:58.881Z,100949.73
2023-10-10T23:51:32.750Z,100945.52
2023-10-10T23:54:05.731Z,100942.11
2023-10-10T23:56:37.929Z,100934.28
2023-10-10T23:59:11.261Z,100928.62
